Okoboji, IA (51355)

10:14 PM CDT on April 01, 2015 (GMT -0500)
Milford Fire Station | | Change Station
CLOSE
Current Station
Personal Weather Station
Location: Milford, IA
Elevation: 1443 ft
Nearby Weather Stations

Elev 1443 ft 43.33 °N, 95.15 °W | Updated 7 seconds ago

Mostly Cloudy
Mostly Cloudy
56.6 °F
Feels Like 56.6 °F
N
2.0
Wind Variable Wind from North
Gusts 6.0 mph

Today
High -- | Low -- °F
--% Chance of Precip.
Yesterday
High -- | Low -- °F
Precip. -- in
7:02 AM 7:46 PM
Waxing Gibbous, 95% visible
Pressure 29.60 in
Visibility 10.0 miles
Clouds Overcast 9000 ft
Dew Point 49 °F
Humidity 75%
Rainfall 0.13 in
Snow Depth Not available.
UV 0 out of 12
Pollen 7.50 out of 12
Air Quality Not available.
Flu Activity Not available.
METAR KSPW 020153Z AUTO 25008KT 10SM -RA OVC090 15/12 A2960 RMK AO2 PK WND 24040/0055 WSHFT 0039 SLP022 P0014 T01500117 TSNO

More Conditions Fewer Conditions

Pressure 29.60 in
Visibility 10.0 miles
Clouds Overcast 9000 ft
Dew Point 49 °F
Humidity 75%
Rainfall 0.13 in
Snow Depth Not available.
UV 0 out of 12
Pollen 7.50 out of 12
Air Quality Not available.
Flu Activity Not available.
METAR KSPW 020153Z AUTO 25008KT 10SM -RA OVC090 15/12 A2960 RMK AO2 PK WND 24040/0055 WSHFT 0039 SLP022 P0014 T01500117 TSNO

More Conditions Fewer Conditions

10-Day Weather Forecast

Almanac

Astronomy

Apr. 01, 2015 Rise Set
Actual Time
Civil Twilight
Nautical Twilight
Astronomical Twilight
Moon
Length of Visible Light
Length of Day
Tomorrow will be .
, % of the Moon is Illuminated

Today's Extremes

State Highs State Lows

Community

WunderPhotos

Upload Photos

1,810,179 photos uploaded!

WunderBlogs® & News

Nearby

Air Quality

  Air Quality AQ Index Pollutant
Not available.

Snow Depth

Station Depth Elevation

Earthquake Activity

City Distance Mag. Time & Date
Minimum magnitude displayed is 2.5.

Coastal Water Temperatures

Place Temperature

Stations

Nearby Weather Stations

Station Location Temp. Windchill Dew Point Humidity Wind Precip. Elev Updated Type